Time;durP1;ratioP1;P1;durP2;ratioP2;P2;SDS_P1;SDS_P2;PMS_P1;PMS_P2;Temp;Humidity;BMP_temperature;BMP_pressure;BME280_temperature;BME280_humidity;BME280_pressure;Samples;Min_cycle;Max_cycle;Signal;HPM_P1;HPM_P2
2022/09/20 00:01:24;;;;;;;1.77;0.82;;;25.30;51.70;;;;;;5022319;28;20169;-68
2022/09/20 00:03:52;;;;;;;2.83;0.85;;;25.30;51.70;;;;;;5020691;28;20117;-68
2022/09/20 00:06:22;;;;;;;0.70;0.70;;;25.30;51.70;;;;;;5034185;28;20029;-68
2022/09/20 00:08:48;;;;;;;0.60;0.60;;;25.20;51.70;;;;;;5031096;28;20060;-68
2022/09/20 00:11:18;;;;;;;2.28;0.70;;;25.20;51.90;;;;;;5028104;28;20040;-69
2022/09/20 00:13:47;;;;;;;1.45;0.77;;;25.30;52.00;;;;;;5030716;28;20021;-69
2022/09/20 00:16:25;;;;;;;1.45;0.77;;;25.30;52.10;;;;;;5017261;28;20034;-69
2022/09/20 00:18:54;;;;;;;1.65;0.90;;;25.20;52.00;;;;;;5033064;28;20450;-69
2022/09/20 00:21:27;;;;;;;0.65;0.65;;;25.30;52.00;;;;;;5021277;28;20053;-69
2022/09/20 00:23:56;;;;;;;0.60;0.60;;;25.30;52.00;;;;;;5020293;28;20086;-69
2022/09/20 00:26:22;;;;;;;0.70;0.70;;;25.30;52.00;;;;;;5027930;28;20026;-69
2022/09/20 00:28:48;;;;;;;0.70;0.70;;;25.30;52.00;;;;;;5028936;28;20527;-69
2022/09/20 00:31:14;;;;;;;1.40;0.63;;;25.30;52.00;;;;;;4958921;28;20050;-69
2022/09/20 00:36:48;;;;;;;1.77;0.88;;;25.20;52.00;;;;;;5024855;28;20022;-69
2022/09/20 00:39:15;;;;;;;0.40;0.40;;;25.20;52.00;;;;;;5026923;28;20095;-69
2022/09/20 00:41:41;;;;;;;1.95;0.68;;;25.20;52.00;;;;;;5012736;28;20045;-69
2022/09/20 00:44:46;;;;;;;0.77;0.70;;;25.30;52.10;;;;;;5014953;28;20133;-68
2022/09/20 00:47:28;;;;;;;2.75;0.80;;;25.30;52.00;;;;;;5031451;28;20375;-68
2022/09/20 00:50:00;;;;;;;0.80;0.80;;;25.20;52.10;;;;;;5024324;28;20033;-69
2022/09/20 00:52:28;;;;;;;1.25;0.90;;;25.10;52.10;;;;;;5013384;28;20045;-69
2022/09/20 00:54:55;;;;;;;2.28;0.75;;;25.20;52.30;;;;;;5023487;28;20045;-69
2022/09/20 00:57:21;;;;;;;1.77;0.70;;;25.20;52.50;;;;;;5032966;28;20034;-68
2022/09/20 00:59:50;;;;;;;1.15;0.65;;;25.10;52.50;;;;;;5031392;28;20132;-69
2022/09/20 01:02:21;;;;;;;0.85;0.85;;;25.20;52.50;;;;;;5031151;28;20169;-69
2022/09/20 01:04:48;;;;;;;1.00;0.80;;;25.10;52.50;;;;;;5031936;28;20037;-68
2022/09/20 01:07:17;;;;;;;0.73;0.73;;;25.10;52.50;;;;;;5015508;28;20487;-69
2022/09/20 01:09:44;;;;;;;0.80;0.80;;;25.20;52.50;;;;;;5021978;28;20040;-69
2022/09/20 01:12:16;;;;;;;0.55;0.55;;;25.20;52.50;;;;;;4996196;28;20120;-69
2022/09/20 01:14:43;;;;;;;;;;;25.20;52.60;;;;;;5022009;28;20064;-68
2022/09/20 01:17:11;;;;;;;0.55;0.55;;;25.20;52.50;;;;;;5031207;28;19909;-69
2022/09/20 01:19:52;;;;;;;0.93;0.60;;;25.20;52.50;;;;;;5031712;28;20047;-69
2022/09/20 01:22:56;;;;;;;1.33;0.77;;;25.10;52.50;;;;;;5031483;28;20100;-68
2022/09/20 01:25:30;;;;;;;1.00;0.80;;;25.20;52.50;;;;;;4980125;28;20042;-69
2022/09/20 01:27:56;;;;;;;0.75;0.75;;;25.30;52.50;;;;;;4952046;29;20118;-68
2022/09/20 01:30:29;;;;;;;0.63;0.60;;;25.20;52.50;;;;;;4969184;28;20531;-68
2022/09/20 01:32:58;;;;;;;0.57;0.57;;;25.10;52.50;;;;;;4955491;28;20030;-69
2022/09/20 01:35:27;;;;;;;0.60;0.60;;;25.10;52.50;;;;;;4981386;28;20065;-69
2022/09/20 01:38:14;;;;;;;1.10;0.68;;;25.10;52.30;;;;;;4989548;28;20039;-69
2022/09/20 01:41:01;;;;;;;0.75;0.70;;;25.10;52.30;;;;;;4974275;28;20034;-69
2022/09/20 01:43:51;;;;;;;0.60;0.60;;;25.30;52.40;;;;;;4990163;28;20047;-69
2022/09/20 01:46:32;;;;;;;0.68;0.68;;;25.20;52.40;;;;;;4968884;28;20050;-68
2022/09/20 01:49:35;;;;;;;1.00;0.50;;;25.10;52.50;;;;;;4990231;28;20034;-69
2022/09/20 01:52:38;;;;;;;0.82;0.50;;;25.10;52.50;;;;;;4987909;28;20065;-68
2022/09/20 01:55:41;;;;;;;1.27;0.80;;;25.10;52.50;;;;;;4984523;28;20129;-69
2022/09/20 01:58:51;;;;;;;0.70;0.70;;;25.20;52.30;;;;;;4972289;28;20072;-68
2022/09/20 02:01:23;;;;;;;1.27;0.70;;;25.40;52.20;;;;;;4992098;28;21097;-69
2022/09/20 02:03:52;;;;;;;1.00;0.90;;;25.30;52.20;;;;;;5014457;28;20042;-69
2022/09/20 02:06:39;;;;;;;2.30;1.15;;;25.40;52.30;;;;;;4992820;28;20366;-69
2022/09/20 02:09:08;;;;;;;2.13;0.80;;;25.30;52.30;;;;;;5010189;28;20057;-69
2022/09/20 02:11:55;;;;;;;1.00;0.90;;;25.30;52.00;;;;;;5027207;28;20131;-68
2022/09/20 02:14:24;;;;;;;2.70;1.10;;;25.40;52.00;;;;;;5028577;28;20053;-68
2022/09/20 02:17:01;;;;;;;2.30;0.70;;;25.30;52.00;;;;;;5030206;28;20068;-68
2022/09/20 02:19:54;;;;;;;0.98;0.73;;;25.50;52.00;;;;;;5031520;28;20056;-68
2022/09/20 02:22:30;;;;;;;0.88;0.80;;;25.40;52.00;;;;;;5025192;28;20037;-68
2022/09/20 02:25:11;;;;;;;0.85;0.70;;;25.30;52.00;;;;;;5025481;28;20033;-69
2022/09/20 02:27:58;;;;;;;0.50;0.50;;;25.40;52.00;;;;;;5014446;28;20029;-68
2022/09/20 02:31:21;;;;;;;0.45;0.45;;;25.30;52.20;;;;;;5017612;28;20030;-68
2022/09/20 02:34:31;;;;;;;0.60;0.60;;;25.30;52.40;;;;;;4986585;28;20034;-69
2022/09/20 02:37:21;;;;;;;0.95;0.65;;;25.40;52.30;;;;;;4911808;29;20036;-69
2022/09/20 02:40:38;;;;;;;0.70;0.70;;;25.30;52.30;;;;;;4910318;29;20051;-69
2022/09/20 02:43:36;;;;;;;0.80;0.70;;;25.30;52.50;;;;;;4852428;29;20057;-68
2022/09/20 02:46:27;;;;;;;2.63;0.82;;;25.30;52.50;;;;;;4797355;29;20093;-69
2022/09/20 02:49:16;;;;;;;2.15;0.80;;;25.20;52.40;;;;;;4801081;29;20039;-69
2022/09/20 02:51:44;;;;;;;1.10;0.95;;;25.30;52.30;;;;;;4782718;30;20120;-69
2022/09/20 02:54:15;;;;;;;0.77;0.68;;;25.40;52.30;;;;;;4791720;29;20211;-69
2022/09/20 02:57:21;;;;;;;1.05;0.63;;;25.20;52.40;;;;;;4797286;29;20674;-69
2022/09/20 03:00:00;;;;;;;2.53;0.90;;;25.30;52.30;;;;;;4763606;30;20052;-69
2022/09/20 03:02:50;;;;;;;1.80;0.73;;;25.20;52.40;;;;;;4763505;30;20085;-68
2022/09/20 03:05:43;;;;;;;1.10;0.60;;;25.30;52.50;;;;;;4751349;30;20422;-69
2022/09/20 03:08:34;;;;;;;1.23;0.60;;;25.20;52.50;;;;;;4743172;30;20499;-69
2022/09/20 03:11:25;;;;;;;3.13;0.63;;;25.20;52.70;;;;;;4766615;30;20116;-69
2022/09/20 03:14:07;;;;;;;1.15;0.88;;;25.20;52.60;;;;;;4771129;30;20044;-69
2022/09/20 03:17:04;;;;;;;1.88;0.57;;;25.20;52.80;;;;;;4774483;30;20043;-69
2022/09/20 03:19:42;;;;;;;1.33;0.70;;;25.20;52.60;;;;;;4856728;29;20049;-69
2022/09/20 03:22:25;;;;;;;3.60;0.60;;;25.20;52.50;;;;;;4874882;29;20043;-69
2022/09/20 03:25:14;;;;;;;2.15;0.80;;;25.20;52.80;;;;;;4963192;28;20392;-69
2022/09/20 03:27:54;;;;;;;0.70;0.70;;;25.20;52.80;;;;;;4910183;29;20048;-68
2022/09/20 03:30:28;;;;;;;0.93;0.70;;;25.20;52.80;;;;;;4910428;29;20072;-69
2022/09/20 03:33:03;;;;;;;1.83;0.60;;;25.30;52.50;;;;;;4918883;28;20052;-68
2022/09/20 03:35:44;;;;;;;2.50;0.70;;;25.40;52.30;;;;;;4972817;28;20125;-69
2022/09/20 03:38:38;;;;;;;1.20;0.77;;;25.50;52.10;;;;;;4986924;28;20734;-69
2022/09/20 03:41:40;;;;;;;1.83;1.00;;;25.60;51.90;;;;;;4969570;28;20078;-69
2022/09/20 03:44:42;;;;;;;2.85;1.00;;;25.50;51.80;;;;;;4990662;28;20046;-69
2022/09/20 03:47:17;;;;;;;0.63;0.63;;;25.50;52.00;;;;;;4985708;28;20050;-69
2022/09/20 03:50:18;;;;;;;0.60;0.60;;;25.40;52.10;;;;;;4991126;28;20046;-68
2022/09/20 03:53:05;;;;;;;1.63;0.90;;;25.20;52.50;;;;;;4934215;29;20035;-69
2022/09/20 03:55:49;;;;;;;1.30;0.65;;;25.30;52.70;;;;;;4934381;29;20082;-69
2022/09/20 03:58:45;;;;;;;1.05;0.60;;;25.00;52.90;;;;;;4921559;29;20401;-68
2022/09/20 04:01:55;;;;;;;0.50;0.50;;;25.10;53.00;;;;;;4921957;29;20054;-68
2022/09/20 04:04:41;;;;;;;2.30;0.60;;;25.00;53.20;;;;;;4849871;29;20133;-69
2022/09/20 04:07:39;;;;;;;0.70;0.70;;;25.10;53.30;;;;;;4877338;29;20052;-69
2022/09/20 04:10:39;;;;;;;2.42;0.70;;;25.00;53.30;;;;;;4913577;29;20506;-69
2022/09/20 04:13:34;;;;;;;2.50;0.55;;;25.00;53.30;;;;;;4913211;29;20059;-69
2022/09/20 04:16:25;;;;;;;0.40;0.40;;;25.00;53.30;;;;;;4912101;29;20040;-69
2022/09/20 04:19:00;;;;;;;3.88;0.63;;;25.10;53.20;;;;;;4913296;29;20070;-69
2022/09/20 04:21:44;;;;;;;0.77;0.55;;;25.10;53.10;;;;;;4914007;29;20051;-69
2022/09/20 04:24:34;;;;;;;0.70;0.47;;;25.00;53.10;;;;;;4910702;29;20107;-69
2022/09/20 04:27:18;;;;;;;3.97;0.77;;;25.10;53.10;;;;;;4933520;28;20117;-68
2022/09/20 04:29:56;;;;;;;2.85;1.08;;;25.10;53.00;;;;;;4969623;28;20073;-69
2022/09/20 04:32:35;;;;;;;1.35;1.08;;;25.10;53.00;;;;;;4961653;28;20047;-69
2022/09/20 04:38:04;;;;;;;1.30;1.20;;;25.10;53.10;;;;;;4966342;28;20527;-69
2022/09/20 04:40:50;;;;;;;3.10;1.20;;;25.20;53.00;;;;;;5008410;28;20041;-69
2022/09/20 04:43:30;;;;;;;2.75;1.10;;;25.10;53.00;;;;;;5003745;28;20297;-69
2022/09/20 04:46:15;;;;;;;1.95;1.10;;;25.00;53.20;;;;;;5024296;28;20038;-68
2022/09/20 04:49:06;;;;;;;3.15;1.38;;;25.00;53.30;;;;;;5021645;28;20042;-68
2022/09/20 04:51:53;;;;;;;6.38;1.30;;;25.00;53.20;;;;;;5033108;28;20042;-68
2022/09/20 04:54:34;;;;;;;1.13;1.00;;;24.80;53.40;;;;;;5026290;28;20041;-68
2022/09/20 04:57:19;;;;;;;2.50;1.15;;;24.90;53.50;;;;;;5001776;28;20038;-69
2022/09/20 05:00:02;;;;;;;2.20;1.00;;;24.90;53.50;;;;;;5018601;28;20057;-69
2022/09/20 05:03:06;;;;;;;1.05;0.80;;;25.00;53.40;;;;;;5014600;28;20065;-69
2022/09/20 05:05:37;;;;;;;0.82;0.80;;;25.00;53.40;;;;;;4993779;28;20038;-70
2022/09/20 05:08:45;;;;;;;1.80;1.30;;;25.00;49.80;;;;;;5000348;28;20034;-69
2022/09/20 05:11:46;;;;;;;1.55;0.98;;;25.10;47.70;;;;;;5010770;28;20048;-69
2022/09/20 05:14:30;;;;;;;1.88;0.82;;;25.20;46.50;;;;;;5010716;28;20046;-68
2022/09/20 05:17:14;;;;;;;1.73;1.25;;;25.20;45.40;;;;;;4994293;28;20068;-67
2022/09/20 05:20:02;;;;;;;2.75;1.10;;;25.20;46.40;;;;;;5010770;28;20033;-69
2022/09/20 05:22:50;;;;;;;1.55;1.15;;;25.10;46.10;;;;;;5010140;28;20061;-69
2022/09/20 05:25:47;;;;;;;2.05;1.25;;;25.20;44.80;;;;;;4997831;28;20672;-70
2022/09/20 05:28:20;;;;;;;0.98;0.88;;;25.20;45.60;;;;;;4990669;28;20133;-70
2022/09/20 05:30:54;;;;;;;3.45;1.08;;;25.30;45.90;;;;;;4990624;28;20432;-72
2022/09/20 05:33:52;;;;;;;1.85;1.10;;;25.30;45.90;;;;;;4990446;28;20062;-71
2022/09/20 05:36:42;;;;;;;2.60;1.38;;;25.40;46.10;;;;;;4948815;28;20035;-70
2022/09/20 05:39:27;;;;;;;1.02;0.93;;;25.40;45.90;;;;;;4965959;28;20065;-70
2022/09/20 05:42:00;;;;;;;3.17;1.90;;;25.50;53.60;;;;;;4968892;28;20047;-70
2022/09/20 05:44:39;;;;;;;3.25;1.20;;;25.80;53.30;;;;;;4967927;28;20058;-70
2022/09/20 05:47:14;;;;;;;3.85;1.00;;;25.80;53.30;;;;;;4961888;28;20512;-72
2022/09/20 05:49:54;;;;;;;1.48;1.02;;;25.90;52.10;;;;;;4961961;28;20057;-72
2022/09/20 05:52:40;;;;;;;2.50;1.23;;;25.90;51.40;;;;;;4939001;29;20036;-67
2022/09/20 05:55:41;;;;;;;5.53;1.10;;;26.00;51.90;;;;;;4947673;29;20198;-69
2022/09/20 05:58:34;;;;;;;3.35;1.20;;;26.00;51.80;;;;;;4945615;28;20126;-70
2022/09/20 06:01:09;;;;;;;1.08;0.93;;;25.90;50.70;;;;;;4947307;28;20059;-72
2022/09/20 06:03:54;;;;;;;0.90;0.90;;;26.10;49.50;;;;;;4944039;29;20079;-71
2022/09/20 06:06:52;;;;;;;1.80;1.15;;;26.00;49.90;;;;;;4932151;28;20059;-71
2022/09/20 06:09:21;;;;;;;2.38;1.20;;;25.90;49.90;;;;;;4936943;28;20035;-70
2022/09/20 06:11:47;;;;;;;1.85;1.30;;;25.90;49.10;;;;;;4944565;29;20030;-72
2022/09/20 06:14:31;;;;;;;1.95;1.08;;;25.90;50.30;;;;;;5002251;28;20490;-73
2022/09/20 06:17:09;;;;;;;1.75;1.05;;;25.90;47.50;;;;;;5010019;28;20409;-70
2022/09/20 06:19:44;;;;;;;0.45;0.40;;;25.80;48.60;;;;;;5008732;28;20089;-72
2022/09/20 06:22:21;;;;;;;4.45;0.73;;;25.80;49.90;;;;;;5000181;28;20045;-71
2022/09/20 06:25:02;;;;;;;8.55;2.25;;;25.90;50.80;;;;;;5013520;28;20033;-72
2022/09/20 06:27:38;;;;;;;0.70;0.70;;;26.00;50.90;;;;;;5009255;28;20439;-74
2022/09/20 06:30:13;;;;;;;4.50;1.45;;;25.90;49.50;;;;;;5001829;28;20034;-71
2022/09/20 06:32:59;;;;;;;2.80;1.38;;;25.90;48.70;;;;;;5009917;28;20088;-71
2022/09/20 06:35:51;;;;;;;0.50;0.50;;;25.90;48.50;;;;;;4991010;28;20024;-72
2022/09/20 06:41:27;;;;;;;2.13;1.05;;;26.00;47.10;;;;;;4986748;28;20041;-70
2022/09/20 06:43:57;;;;;;;1.85;1.23;;;26.00;45.90;;;;;;4986468;28;20157;-71
2022/09/20 06:46:31;;;;;;;2.10;1.33;;;26.00;47.60;;;;;;4986862;28;20045;-72
2022/09/20 06:48:57;;;;;;;1.20;1.10;;;26.00;46.00;;;;;;4987555;28;20038;-70
2022/09/20 06:51:25;;;;;;;1.50;1.20;;;25.90;46.90;;;;;;4973571;28;20046;-72
2022/09/20 06:53:53;;;;;;;3.15;0.93;;;26.00;48.40;;;;;;5005253;28;20487;-72
2022/09/20 06:56:26;;;;;;;1.83;0.57;;;26.00;49.10;;;;;;5005124;28;20080;-72
2022/09/20 06:58:53;;;;;;;3.33;1.25;;;26.10;48.80;;;;;;5005219;28;20038;-71
2022/09/20 07:01:20;;;;;;;4.05;1.33;;;26.10;45.20;;;;;;5005924;28;20053;-71
2022/09/20 07:03:46;;;;;;;0.95;0.90;;;26.10;46.90;;;;;;4990433;28;20779;-73
2022/09/20 07:06:18;;;;;;;1.33;1.10;;;25.90;47.50;;;;;;5001581;28;20372;-70
2022/09/20 07:08:45;;;;;;;0.60;0.60;;;25.90;44.50;;;;;;4969172;28;20046;-72
2022/09/20 07:11:15;;;;;;;1.35;1.15;;;25.90;46.90;;;;;;4986931;28;20047;-72
2022/09/20 07:13:44;;;;;;;2.35;0.80;;;25.90;46.90;;;;;;4982423;28;20057;-71
2022/09/20 07:16:13;;;;;;;2.95;1.60;;;25.90;47.00;;;;;;4997647;28;20100;-71
2022/09/20 07:18:41;;;;;;;5.72;1.65;;;25.90;43.50;;;;;;5009789;28;20096;-71
2022/09/20 07:21:15;;;;;;;3.70;1.67;;;25.90;48.50;;;;;;5010768;28;20118;-69
2022/09/20 07:23:44;;;;;;;2.42;1.00;;;26.00;45.90;;;;;;5021115;28;20041;-69
2022/09/20 07:26:25;;;;;;;2.08;1.30;;;25.90;47.30;;;;;;5031196;28;20438;-69
2022/09/20 07:28:51;;;;;;;3.55;1.30;;;25.90;47.80;;;;;;5015198;28;20049;-71
2022/09/20 07:31:19;;;;;;;1.42;1.00;;;26.00;47.40;;;;;;5004198;28;20093;-70
2022/09/20 07:33:45;;;;;;;3.53;1.63;;;25.90;48.10;;;;;;5011867;28;20037;-70
2022/09/20 07:36:11;;;;;;;3.80;1.45;;;26.00;47.20;;;;;;5018697;28;20525;-70
2022/09/20 07:38:41;;;;;;;3.15;0.98;;;26.10;47.20;;;;;;5016921;28;20046;-72
2022/09/20 07:41:09;;;;;;;5.00;1.30;;;26.00;49.70;;;;;;5013118;28;20037;-72
2022/09/20 07:43:35;;;;;;;2.47;0.95;;;25.90;47.20;;;;;;5030858;28;20073;-71
2022/09/20 07:46:01;;;;;;;3.45;1.65;;;25.90;46.80;;;;;;5023726;28;20163;-72
2022/09/20 07:48:32;;;;;;;1.20;1.10;;;26.10;47.00;;;;;;5007938;28;20048;-69
2022/09/20 07:51:02;;;;;;;6.47;1.73;;;26.00;47.70;;;;;;5021442;28;20037;-69
2022/09/20 07:53:29;;;;;;;4.40;1.35;;;26.00;45.10;;;;;;5022737;28;20483;-69
2022/09/20 07:56:00;;;;;;;2.40;1.40;;;26.00;46.80;;;;;;5018298;28;20030;-69
2022/09/20 07:58:27;;;;;;;4.00;2.03;;;25.90;46.00;;;;;;5015281;28;20063;-70
2022/09/20 08:00:55;;;;;;;2.47;1.35;;;25.90;47.40;;;;;;5027148;28;20064;-71
2022/09/20 08:03:21;;;;;;;2.08;1.15;;;26.00;50.00;;;;;;5018486;28;20084;-69
2022/09/20 08:05:49;;;;;;;1.83;1.45;;;26.00;47.20;;;;;;5035604;28;20125;-69
2022/09/20 08:08:16;;;;;;;5.22;2.20;;;26.10;48.00;;;;;;5012167;28;20084;-69
2022/09/20 08:10:45;;;;;;;3.17;1.60;;;26.00;47.10;;;;;;5015822;28;20022;-72
2022/09/20 08:13:13;;;;;;;4.60;1.25;;;26.00;47.10;;;;;;5020403;28;20030;-73
2022/09/20 08:15:40;;;;;;;2.28;1.58;;;26.10;47.20;;;;;;5017494;28;20025;-75
2022/09/20 08:18:10;;;;;;;0.88;0.73;;;26.00;48.00;;;;;;5034041;28;20528;-73
2022/09/20 08:20:38;;;;;;;2.95;1.50;;;26.00;46.50;;;;;;5025237;28;20065;-73
2022/09/20 08:23:08;;;;;;;4.00;1.27;;;26.00;48.50;;;;;;5002606;28;20058;-73
2022/09/20 08:25:35;;;;;;;2.22;1.85;;;26.10;48.60;;;;;;5010352;28;20042;-74
2022/09/20 08:28:01;;;;;;;0.40;0.40;;;26.00;44.40;;;;;;4991155;28;20501;-72
2022/09/20 08:30:27;;;;;;;4.75;1.63;;;26.10;49.50;;;;;;5013821;28;20042;-72
2022/09/20 08:32:54;;;;;;;4.38;1.88;;;26.00;48.00;;;;;;5012981;28;20042;-72
2022/09/20 08:35:21;;;;;;;3.60;1.30;;;26.10;45.50;;;;;;5013079;28;20022;-71
2022/09/20 08:37:47;;;;;;;5.88;2.00;;;25.90;45.50;;;;;;5013897;28;20032;-70
2022/09/20 08:40:17;;;;;;;7.97;1.73;;;25.90;46.60;;;;;;5013420;28;20046;-70
2022/09/20 08:42:43;;;;;;;3.95;1.95;;;25.90;47.10;;;;;;5012534;28;20483;-71
2022/09/20 08:45:19;;;;;;;5.22;2.40;;;25.90;46.60;;;;;;5013287;28;20062;-71
2022/09/20 08:47:55;;;;;;;4.53;1.90;;;25.90;44.20;;;;;;5010936;28;20133;-71
2022/09/20 08:50:22;;;;;;;2.75;1.48;;;25.80;47.00;;;;;;5013928;28;20108;-71
2022/09/20 08:52:52;;;;;;;2.45;1.90;;;25.80;44.70;;;;;;5013724;28;20079;-71
2022/09/20 08:55:21;;;;;;;2.55;1.20;;;25.80;43.50;;;;;;5013357;28;20497;-71
2022/09/20 08:57:49;;;;;;;3.25;1.77;;;25.80;49.20;;;;;;5013486;28;20478;-71
2022/09/20 09:00:21;;;;;;;4.35;1.92;;;25.70;46.90;;;;;;5013124;28;20054;-71
2022/09/20 09:02:52;;;;;;;5.13;1.98;;;25.80;46.40;;;;;;5013142;28;20395;-72
2022/09/20 09:05:37;;;;;;;3.35;1.60;;;25.80;43.30;;;;;;5011283;28;20034;-72
2022/09/20 09:08:18;;;;;;;3.28;1.50;;;25.80;48.40;;;;;;5013195;28;20033;-72
2022/09/20 09:11:03;;;;;;;1.38;1.30;;;25.80;44.90;;;;;;5009741;28;20033;-72
2022/09/20 09:13:36;;;;;;;2.00;1.65;;;25.90;47.80;;;;;;5009941;28;20029;-72
2022/09/20 09:16:14;;;;;;;1.52;1.30;;;25.70;42.10;;;;;;5012822;28;20026;-72
2022/09/20 09:18:43;;;;;;;2.08;1.30;;;25.60;45.10;;;;;;5030736;28;20033;-73
2022/09/20 09:21:23;;;;;;;0.50;0.50;;;25.70;47.20;;;;;;5032776;28;20119;-73
2022/09/20 09:23:51;;;;;;;0.30;0.30;;;25.90;49.60;;;;;;5032640;28;20530;-72
2022/09/20 09:26:20;;;;;;;5.78;0.73;;;25.90;49.70;;;;;;5032627;28;20089;-73
2022/09/20 09:28:47;;;;;;;2.40;1.70;;;25.90;46.70;;;;;;5030976;28;20037;-73
2022/09/20 09:31:24;;;;;;;0.77;0.77;;;26.00;47.60;;;;;;5011924;28;20026;-73
2022/09/20 09:33:50;;;;;;;3.17;1.00;;;26.10;48.40;;;;;;5012462;28;20033;-73
2022/09/20 09:36:23;;;;;;;1.30;0.85;;;26.10;47.20;;;;;;5012686;28;20026;-73
2022/09/20 09:38:49;;;;;;;1.35;1.15;;;26.20;48.00;;;;;;5012598;28;20080;-73
2022/09/20 09:41:28;;;;;;;1.45;1.35;;;26.20;49.40;;;;;;5011124;28;20030;-71
2022/09/20 09:44:19;;;;;;;3.38;1.95;;;26.20;48.00;;;;;;5012492;28;20604;-72
2022/09/20 09:46:45;;;;;;;1.55;1.45;;;26.30;48.40;;;;;;5012146;28;20034;-73
2022/09/20 09:49:15;;;;;;;3.75;1.20;;;26.40;48.30;;;;;;5012536;28;20088;-69
2022/09/20 09:52:01;;;;;;;4.13;1.45;;;26.30;39.50;;;;;;5012337;28;20603;-69
2022/09/20 09:54:30;;;;;;;1.10;0.95;;;26.20;41.20;;;;;;5009917;28;20069;-69
2022/09/20 09:57:23;;;;;;;0.93;0.70;;;26.00;41.00;;;;;;5009926;28;20522;-69
2022/09/20 09:59:55;;;;;;;1.85;1.05;;;26.00;43.70;;;;;;5009770;28;20791;-69
2022/09/20 10:02:41;;;;;;;3.55;0.98;;;26.00;40.30;;;;;;5009495;28;20419;-69
2022/09/20 10:05:19;;;;;;;2.38;1.20;;;25.90;41.40;;;;;;5009829;28;20052;-69
2022/09/20 10:07:58;;;;;;;1.08;1.00;;;25.80;41.80;;;;;;5009599;28;20042;-69
2022/09/20 10:10:59;;;;;;;1.20;1.10;;;25.80;39.40;;;;;;5008980;28;20041;-69
2022/09/20 10:14:02;;;;;;;3.33;1.30;;;25.70;41.30;;;;;;4954302;28;20083;-69
2022/09/20 10:16:58;;;;;;;1.35;1.17;;;25.80;45.40;;;;;;4970360;28;20030;-69
2022/09/20 10:19:43;;;;;;;1.65;0.80;;;25.70;43.70;;;;;;4979710;28;20125;-69
2022/09/20 10:22:33;;;;;;;2.13;1.02;;;25.80;46.80;;;;;;4982606;28;20086;-71
2022/09/20 10:25:30;;;;;;;2.28;0.88;;;26.00;48.00;;;;;;4965329;28;20034;-74
2022/09/20 10:28:18;;;;;;;1.65;1.20;;;26.00;49.00;;;;;;4962912;28;20050;-74
2022/09/20 10:31:16;;;;;;;7.28;2.20;;;26.10;49.00;;;;;;4952967;28;20038;-73
2022/09/20 10:33:58;;;;;;;3.13;1.70;;;26.40;49.60;;;;;;4916369;29;20121;-72
2022/09/20 10:36:51;;;;;;;1.02;0.93;;;26.30;48.80;;;;;;4920789;29;20518;-72
2022/09/20 10:39:37;;;;;;;0.60;0.60;;;26.40;45.80;;;;;;4923467;29;20378;-73
2022/09/20 10:45:55;;;;;;;0.73;0.73;;;26.30;47.80;;;;;;4917571;29;20506;-73
2022/09/20 10:48:32;;;;;;;1.15;1.08;;;26.50;47.90;;;;;;4969259;28;20097;-73
2022/09/20 10:51:09;;;;;;;0.57;0.50;;;26.50;47.20;;;;;;4965422;28;20042;-72
2022/09/20 10:54:07;;;;;;;0.65;0.60;;;26.50;46.60;;;;;;4939050;29;20546;-74
2022/09/20 10:56:45;;;;;;;1.77;1.20;;;26.50;45.60;;;;;;4908033;29;20083;-74
2022/09/20 10:59:23;;;;;;;0.60;0.60;;;26.50;43.00;;;;;;4900969;29;20052;-73
2022/09/20 11:02:08;;;;;;;0.73;0.70;;;26.40;43.60;;;;;;4915428;29;20060;-72
2022/09/20 11:05:01;;;;;;;3.85;1.02;;;26.50;41.80;;;;;;4906571;29;20040;-73
2022/09/20 11:07:48;;;;;;;0.85;0.77;;;26.50;44.20;;;;;;4909542;29;20458;-72
2022/09/20 11:10:19;;;;;;;2.13;1.00;;;26.40;44.10;;;;;;4895604;29;20059;-72
2022/09/20 11:13:09;;;;;;;0.80;0.40;;;26.30;41.50;;;;;;4894290;29;20047;-74
2022/09/20 11:15:52;;;;;;;1.20;1.10;;;26.20;43.80;;;;;;4899865;29;20040;-72
2022/09/20 11:18:24;;;;;;;0.80;0.80;;;26.20;39.70;;;;;;4906195;29;20084;-72
2022/09/20 11:21:06;;;;;;;1.43;1.17;;;26.00;38.80;;;;;;4915468;29;20047;-72
2022/09/20 11:24:26;;;;;;;1.00;1.00;;;25.90;42.90;;;;;;4909017;29;20499;-72
2022/09/20 11:26:59;;;;;;;2.90;1.40;;;26.00;43.30;;;;;;4934502;29;20067;-70
2022/09/20 11:29:44;;;;;;;;;;;25.90;38.20;;;;;;4946486;29;20050;-73
2022/09/20 11:32:45;;;;;;;2.20;1.50;;;25.80;43.20;;;;;;4944900;28;19910;-72
2022/09/20 11:35:13;;;;;;;2.60;1.00;;;25.70;41.80;;;;;;4972966;28;20043;-73
2022/09/20 11:38:02;;;;;;;1.58;1.05;;;25.70;47.50;;;;;;4965941;28;20440;-72
2022/09/20 11:40:39;;;;;;;2.17;1.15;;;25.80;45.80;;;;;;4913132;29;20115;-70
2022/09/20 11:43:08;;;;;;;3.35;0.77;;;25.60;45.50;;;;;;4912595;29;20052;-73
2022/09/20 11:45:37;;;;;;;1.10;1.00;;;25.80;46.60;;;;;;4910274;29;20075;-73
2022/09/20 11:48:13;;;;;;;1.55;1.02;;;25.70;41.00;;;;;;4915477;29;20639;-71
2022/09/20 11:50:45;;;;;;;1.67;1.42;;;25.70;42.20;;;;;;4914656;29;20040;-71
2022/09/20 11:53:46;;;;;;;1.23;0.98;;;25.70;48.70;;;;;;4913935;29;20052;-71
2022/09/20 11:56:27;;;;;;;2.40;1.08;;;25.70;46.50;;;;;;4915633;29;20047;-71
2022/09/20 11:58:57;;;;;;;1.77;0.80;;;25.80;40.80;;;;;;4914952;29;20036;-70
2022/09/20 12:01:36;;;;;;;0.95;0.93;;;25.70;46.20;;;;;;4913911;29;20103;-71
2022/09/20 12:04:06;;;;;;;2.05;1.10;;;25.90;48.10;;;;;;4933187;29;20494;-72
2022/09/20 12:06:35;;;;;;;4.38;1.13;;;25.80;44.30;;;;;;4931855;29;20126;-73
2022/09/20 12:09:06;;;;;;;1.50;1.05;;;25.80;41.10;;;;;;4917063;29;20036;-72
2022/09/20 12:11:37;;;;;;;1.15;1.05;;;25.70;39.50;;;;;;4946068;28;20086;-73
2022/09/20 12:14:06;;;;;;;0.85;0.68;;;25.60;49.30;;;;;;4955563;28;20437;-74
2022/09/20 12:16:44;;;;;;;3.28;0.80;;;25.70;47.60;;;;;;4971919;28;20700;-74
2022/09/20 12:19:20;;;;;;;1.23;0.88;;;25.90;45.50;;;;;;5022218;28;20484;-74
2022/09/20 12:21:58;;;;;;;0.60;0.60;;;26.00;43.50;;;;;;5023626;28;20053;-73
2022/09/20 12:24:32;;;;;;;0.80;0.80;;;25.90;41.70;;;;;;5014327;28;20394;-73
2022/09/20 12:27:26;;;;;;;0.82;0.70;;;26.10;41.30;;;;;;5012031;28;20033;-73
2022/09/20 12:30:19;;;;;;;1.48;1.15;;;26.10;40.20;;;;;;4954160;28;20043;-74
2022/09/20 12:32:53;;;;;;;1.10;1.00;;;26.00;38.50;;;;;;4936969;29;20031;-73
2022/09/20 12:35:35;;;;;;;0.60;0.60;;;26.00;35.20;;;;;;4935140;29;20501;-74
2022/09/20 12:38:19;;;;;;;0.90;0.90;;;25.90;34.70;;;;;;4942587;29;20504;-75
2022/09/20 12:41:13;;;;;;;1.85;0.80;;;26.00;36.60;;;;;;4934098;29;20079;-72
2022/09/20 12:43:53;;;;;;;0.88;0.85;;;26.00;36.70;;;;;;4877492;29;20057;-75
2022/09/20 12:46:28;;;;;;;1.85;1.17;;;25.90;35.70;;;;;;4897375;29;20104;-76
2022/09/20 12:52:49;;;;;;;1.20;1.10;;;25.90;33.90;;;;;;4894000;29;20039;-71
2022/09/20 12:55:39;;;;;;;1.10;1.10;;;25.80;35.00;;;;;;4894445;29;20131;-70
2022/09/20 13:00:39;;;;;;;0.70;0.70;;;25.50;31.00;;;;;;4895139;29;20143;-71
2022/09/20 13:03:20;;;;;;;1.15;1.05;;;25.50;34.60;;;;;;4894664;29;20079;-70
2022/09/20 13:06:03;;;;;;;3.28;1.17;;;25.40;36.00;;;;;;4895191;29;20048;-69
2022/09/20 13:08:51;;;;;;;2.15;1.55;;;25.50;38.10;;;;;;4951158;29;20039;-73
2022/09/20 13:11:39;;;;;;;0.90;0.90;;;25.60;35.80;;;;;;4948438;29;20035;-72
2022/09/20 13:14:07;;;;;;;4.78;1.02;;;25.50;37.20;;;;;;4944893;29;20531;-69
2022/09/20 13:16:55;;;;;;;0.85;0.82;;;25.50;37.30;;;;;;4942180;28;20042;-70
2022/09/20 13:19:32;;;;;;;1.17;0.70;;;25.60;37.30;;;;;;4948507;28;20417;-71
2022/09/20 13:22:16;;;;;;;4.30;1.10;;;25.40;37.60;;;;;;5013662;28;20034;-70
2022/09/20 13:24:47;;;;;;;1.35;1.23;;;25.40;39.40;;;;;;5007747;28;20042;-71
2022/09/20 13:27:31;;;;;;;2.42;1.20;;;25.40;36.50;;;;;;5012690;28;20133;-71
2022/09/20 13:30:16;;;;;;;1.15;1.05;;;25.30;39.70;;;;;;5007385;28;20030;-71
2022/09/20 13:32:42;;;;;;;0.70;0.70;;;25.40;38.20;;;;;;4997187;28;20026;-73
2022/09/20 13:35:11;;;;;;;0.90;0.90;;;25.50;41.30;;;;;;5014342;28;20030;-71
2022/09/20 13:37:58;;;;;;;1.15;0.95;;;25.40;40.10;;;;;;5011991;28;20044;-71
2022/09/20 13:40:32;;;;;;;0.90;0.88;;;25.40;39.50;;;;;;5009144;28;20057;-71
2022/09/20 13:43:05;;;;;;;0.68;0.65;;;25.50;40.60;;;;;;5012713;28;20663;-72
2022/09/20 13:45:32;;;;;;;2.13;1.23;;;25.30;40.40;;;;;;5000365;28;20045;-71
2022/09/20 13:48:02;;;;;;;1.23;1.15;;;25.40;36.00;;;;;;5011674;28;20034;-71
2022/09/20 13:50:33;;;;;;;1.80;1.30;;;25.30;39.90;;;;;;5005726;28;20049;-71
2022/09/20 13:53:02;;;;;;;1.65;1.27;;;25.30;36.50;;;;;;5009647;28;20029;-71
2022/09/20 13:55:34;;;;;;;0.80;0.80;;;25.20;40.00;;;;;;5012044;28;20022;-71
2022/09/20 13:58:41;;;;;;;5.57;1.30;;;25.30;42.80;;;;;;5004490;28;20064;-71
2022/09/20 14:01:21;;;;;;;1.42;1.15;;;25.30;41.20;;;;;;4948465;28;20050;-71
2022/09/20 14:03:47;;;;;;;1.52;1.25;;;25.30;37.00;;;;;;4950665;28;20039;-71
2022/09/20 14:06:14;;;;;;;2.03;1.23;;;25.20;39.40;;;;;;4967906;28;20051;-71
2022/09/20 14:08:50;;;;;;;4.95;1.50;;;25.20;44.00;;;;;;4970581;28;20030;-71